sensor_id;sensor_type;location;lat;lon;timestamp;P1;durP1;ratioP1;P2;durP2;ratioP2
60478;SDS011;46321;48.398;11.754;2023-01-31T00:01:12;7.28;;;2.90;;
60478;SDS011;46321;48.398;11.754;2023-01-31T00:03:41;7.75;;;3.45;;
60478;SDS011;46321;48.398;11.754;2023-01-31T00:06:08;5.30;;;3.10;;
60478;SDS011;46321;48.398;11.754;2023-01-31T00:08:40;6.05;;;2.65;;
60478;SDS011;46321;48.398;11.754;2023-01-31T00:11:05;6.40;;;3.15;;
60478;SDS011;46321;48.398;11.754;2023-01-31T00:13:31;6.38;;;3.00;;
60478;SDS011;46321;48.398;11.754;2023-01-31T00:15:56;5.75;;;3.10;;
60478;SDS011;46321;48.398;11.754;2023-01-31T00:18:22;6.78;;;3.38;;
60478;SDS011;46321;48.398;11.754;2023-01-31T00:20:47;8.70;;;2.90;;
60478;SDS011;46321;48.398;11.754;2023-01-31T00:23:12;5.95;;;3.40;;
60478;SDS011;46321;48.398;11.754;2023-01-31T00:25:38;6.03;;;2.70;;
60478;SDS011;46321;48.398;11.754;2023-01-31T00:28:03;7.65;;;3.25;;
60478;SDS011;46321;48.398;11.754;2023-01-31T00:30:28;8.07;;;3.53;;
60478;SDS011;46321;48.398;11.754;2023-01-31T00:32:54;5.93;;;3.50;;
60478;SDS011;46321;48.398;11.754;2023-01-31T00:35:19;6.60;;;3.00;;
60478;SDS011;46321;48.398;11.754;2023-01-31T00:37:44;10.13;;;3.10;;
60478;SDS011;46321;48.398;11.754;2023-01-31T00:40:09;4.90;;;3.00;;
60478;SDS011;46321;48.398;11.754;2023-01-31T00:42:35;9.00;;;3.38;;
60478;SDS011;46321;48.398;11.754;2023-01-31T00:45:00;7.57;;;3.10;;
60478;SDS011;46321;48.398;11.754;2023-01-31T00:47:26;7.65;;;3.10;;
60478;SDS011;46321;48.398;11.754;2023-01-31T00:49:51;9.50;;;2.90;;
60478;SDS011;46321;48.398;11.754;2023-01-31T00:52:16;5.97;;;3.45;;
60478;SDS011;46321;48.398;11.754;2023-01-31T00:54:41;6.80;;;3.28;;
60478;SDS011;46321;48.398;11.754;2023-01-31T00:57:07;8.65;;;3.50;;
60478;SDS011;46321;48.398;11.754;2023-01-31T00:59:32;5.25;;;2.83;;
60478;SDS011;46321;48.398;11.754;2023-01-31T01:01:57;6.38;;;3.10;;
60478;SDS011;46321;48.398;11.754;2023-01-31T01:04:22;7.00;;;3.10;;
60478;SDS011;46321;48.398;11.754;2023-01-31T01:06:48;7.68;;;2.78;;
60478;SDS011;46321;48.398;11.754;2023-01-31T01:09:14;6.68;;;3.40;;
60478;SDS011;46321;48.398;11.754;2023-01-31T01:11:40;7.88;;;3.28;;
60478;SDS011;46321;48.398;11.754;2023-01-31T01:14:05;6.03;;;3.20;;
60478;SDS011;46321;48.398;11.754;2023-01-31T01:16:32;4.93;;;3.10;;
60478;SDS011;46321;48.398;11.754;2023-01-31T01:19:03;7.05;;;3.03;;
60478;SDS011;46321;48.398;11.754;2023-01-31T01:21:30;4.72;;;2.92;;
60478;SDS011;46321;48.398;11.754;2023-01-31T01:23:58;8.40;;;3.03;;
60478;SDS011;46321;48.398;11.754;2023-01-31T01:26:25;8.65;;;3.33;;
60478;SDS011;46321;48.398;11.754;2023-01-31T01:28:54;5.00;;;2.92;;
60478;SDS011;46321;48.398;11.754;2023-01-31T01:31:20;6.45;;;2.83;;
60478;SDS011;46321;48.398;11.754;2023-01-31T01:33:47;7.10;;;3.20;;
60478;SDS011;46321;48.398;11.754;2023-01-31T01:36:14;8.10;;;3.15;;
60478;SDS011;46321;48.398;11.754;2023-01-31T01:38:41;6.38;;;2.92;;
60478;SDS011;46321;48.398;11.754;2023-01-31T01:41:08;6.57;;;2.80;;
60478;SDS011;46321;48.398;11.754;2023-01-31T01:43:51;5.65;;;2.75;;
60478;SDS011;46321;48.398;11.754;2023-01-31T01:46:32;8.85;;;2.78;;
60478;SDS011;46321;48.398;11.754;2023-01-31T01:51:36;6.82;;;2.70;;
60478;SDS011;46321;48.398;11.754;2023-01-31T01:54:04;4.90;;;2.67;;
60478;SDS011;46321;48.398;11.754;2023-01-31T01:56:35;5.43;;;2.67;;
60478;SDS011;46321;48.398;11.754;2023-01-31T01:59:19;8.13;;;3.63;;
60478;SDS011;46321;48.398;11.754;2023-01-31T02:01:49;8.98;;;2.63;;
60478;SDS011;46321;48.398;11.754;2023-01-31T02:04:17;6.88;;;2.90;;
60478;SDS011;46321;48.398;11.754;2023-01-31T02:06:46;4.28;;;2.45;;
60478;SDS011;46321;48.398;11.754;2023-01-31T02:09:15;7.30;;;2.80;;
60478;SDS011;46321;48.398;11.754;2023-01-31T02:11:47;5.50;;;2.78;;
60478;SDS011;46321;48.398;11.754;2023-01-31T02:14:13;8.82;;;3.17;;
60478;SDS011;46321;48.398;11.754;2023-01-31T02:16:39;5.45;;;3.10;;
60478;SDS011;46321;48.398;11.754;2023-01-31T02:19:06;9.88;;;2.97;;
60478;SDS011;46321;48.398;11.754;2023-01-31T02:22:09;6.93;;;2.97;;
60478;SDS011;46321;48.398;11.754;2023-01-31T02:27:59;5.10;;;2.70;;
60478;SDS011;46321;48.398;11.754;2023-01-31T02:33:43;8.32;;;3.65;;
60478;SDS011;46321;48.398;11.754;2023-01-31T02:42:22;8.38;;;2.70;;
60478;SDS011;46321;48.398;11.754;2023-01-31T02:45:27;4.85;;;2.58;;
60478;SDS011;46321;48.398;11.754;2023-01-31T02:50:48;8.77;;;2.92;;
60478;SDS011;46321;48.398;11.754;2023-01-31T02:53:35;7.85;;;3.35;;
60478;SDS011;46321;48.398;11.754;2023-01-31T02:56:08;8.88;;;2.97;;
60478;SDS011;46321;48.398;11.754;2023-01-31T03:02:00;6.78;;;3.08;;
60478;SDS011;46321;48.398;11.754;2023-01-31T03:04:30;7.70;;;2.72;;
60478;SDS011;46321;48.398;11.754;2023-01-31T03:07:01;6.80;;;2.85;;
60478;SDS011;46321;48.398;11.754;2023-01-31T03:15:45;10.45;;;2.95;;
60478;SDS011;46321;48.398;11.754;2023-01-31T03:18:48;7.00;;;2.70;;
60478;SDS011;46321;48.398;11.754;2023-01-31T03:21:24;8.52;;;2.80;;
60478;SDS011;46321;48.398;11.754;2023-01-31T03:23:54;11.32;;;3.25;;
60478;SDS011;46321;48.398;11.754;2023-01-31T03:26:22;7.35;;;3.10;;
60478;SDS011;46321;48.398;11.754;2023-01-31T03:28:49;7.72;;;3.00;;
60478;SDS011;46321;48.398;11.754;2023-01-31T03:31:24;8.52;;;2.80;;
60478;SDS011;46321;48.398;11.754;2023-01-31T03:33:54;7.05;;;2.88;;
60478;SDS011;46321;48.398;11.754;2023-01-31T03:42:44;5.75;;;2.80;;
60478;SDS011;46321;48.398;11.754;2023-01-31T03:45:14;8.23;;;3.08;;
60478;SDS011;46321;48.398;11.754;2023-01-31T03:47:46;6.82;;;2.78;;
60478;SDS011;46321;48.398;11.754;2023-01-31T03:50:21;7.88;;;2.72;;
60478;SDS011;46321;48.398;11.754;2023-01-31T03:52:51;4.70;;;2.70;;
60478;SDS011;46321;48.398;11.754;2023-01-31T03:55:30;8.57;;;3.08;;
60478;SDS011;46321;48.398;11.754;2023-01-31T03:58:00;8.15;;;3.08;;
60478;SDS011;46321;48.398;11.754;2023-01-31T04:00:28;6.50;;;3.15;;
60478;SDS011;46321;48.398;11.754;2023-01-31T04:02:57;6.65;;;2.97;;
60478;SDS011;46321;48.398;11.754;2023-01-31T04:05:34;7.10;;;3.08;;
60478;SDS011;46321;48.398;11.754;2023-01-31T04:07:59;7.18;;;3.08;;
60478;SDS011;46321;48.398;11.754;2023-01-31T04:10:25;9.57;;;3.28;;
60478;SDS011;46321;48.398;11.754;2023-01-31T04:12:50;7.53;;;3.17;;
60478;SDS011;46321;48.398;11.754;2023-01-31T04:15:16;9.20;;;2.90;;
60478;SDS011;46321;48.398;11.754;2023-01-31T04:17:42;7.78;;;2.97;;
60478;SDS011;46321;48.398;11.754;2023-01-31T04:20:07;7.55;;;3.05;;
60478;SDS011;46321;48.398;11.754;2023-01-31T04:22:34;9.63;;;3.15;;
60478;SDS011;46321;48.398;11.754;2023-01-31T04:24:59;6.78;;;2.63;;
60478;SDS011;46321;48.398;11.754;2023-01-31T04:27:25;12.65;;;3.08;;
60478;SDS011;46321;48.398;11.754;2023-01-31T04:29:50;6.28;;;2.70;;
60478;SDS011;46321;48.398;11.754;2023-01-31T04:32:15;6.35;;;2.65;;
60478;SDS011;46321;48.398;11.754;2023-01-31T04:34:41;5.63;;;2.67;;
60478;SDS011;46321;48.398;11.754;2023-01-31T04:37:06;7.72;;;2.55;;
60478;SDS011;46321;48.398;11.754;2023-01-31T04:39:31;6.15;;;2.80;;
60478;SDS011;46321;48.398;11.754;2023-01-31T04:41:57;5.25;;;2.40;;
60478;SDS011;46321;48.398;11.754;2023-01-31T04:44:22;6.72;;;2.97;;
60478;SDS011;46321;48.398;11.754;2023-01-31T04:46:47;6.10;;;2.42;;
60478;SDS011;46321;48.398;11.754;2023-01-31T04:49:12;5.78;;;2.75;;
60478;SDS011;46321;48.398;11.754;2023-01-31T04:51:39;8.07;;;3.08;;
60478;SDS011;46321;48.398;11.754;2023-01-31T04:54:04;7.15;;;2.45;;
60478;SDS011;46321;48.398;11.754;2023-01-31T04:56:30;6.47;;;2.75;;
60478;SDS011;46321;48.398;11.754;2023-01-31T04:58:56;4.90;;;3.25;;
60478;SDS011;46321;48.398;11.754;2023-01-31T05:01:21;4.40;;;2.30;;
60478;SDS011;46321;48.398;11.754;2023-01-31T05:03:46;5.15;;;2.67;;
60478;SDS011;46321;48.398;11.754;2023-01-31T05:06:12;7.65;;;2.65;;
60478;SDS011;46321;48.398;11.754;2023-01-31T05:08:37;7.10;;;2.80;;
60478;SDS011;46321;48.398;11.754;2023-01-31T05:11:02;7.55;;;2.88;;
60478;SDS011;46321;48.398;11.754;2023-01-31T05:13:29;7.43;;;2.75;;
60478;SDS011;46321;48.398;11.754;2023-01-31T05:15:56;5.45;;;2.88;;
60478;SDS011;46321;48.398;11.754;2023-01-31T05:18:22;9.90;;;2.45;;
60478;SDS011;46321;48.398;11.754;2023-01-31T05:20:48;7.60;;;2.70;;
60478;SDS011;46321;48.398;11.754;2023-01-31T05:23:14;9.80;;;2.85;;
60478;SDS011;46321;48.398;11.754;2023-01-31T05:25:40;5.90;;;3.20;;
60478;SDS011;46321;48.398;11.754;2023-01-31T05:28:05;8.18;;;2.92;;
60478;SDS011;46321;48.398;11.754;2023-01-31T05:30:30;6.30;;;2.72;;
60478;SDS011;46321;48.398;11.754;2023-01-31T05:32:56;7.60;;;3.05;;
60478;SDS011;46321;48.398;11.754;2023-01-31T05:35:21;7.63;;;3.08;;
60478;SDS011;46321;48.398;11.754;2023-01-31T05:37:46;9.43;;;3.15;;
60478;SDS011;46321;48.398;11.754;2023-01-31T05:40:12;6.18;;;2.90;;
60478;SDS011;46321;48.398;11.754;2023-01-31T05:42:40;7.00;;;2.85;;
60478;SDS011;46321;48.398;11.754;2023-01-31T05:45:06;7.82;;;3.28;;
60478;SDS011;46321;48.398;11.754;2023-01-31T05:47:32;7.47;;;2.65;;
60478;SDS011;46321;48.398;11.754;2023-01-31T05:49:57;7.60;;;3.10;;
60478;SDS011;46321;48.398;11.754;2023-01-31T05:52:23;9.43;;;3.00;;
60478;SDS011;46321;48.398;11.754;2023-01-31T05:54:48;7.30;;;3.50;;
60478;SDS011;46321;48.398;11.754;2023-01-31T05:57:13;10.15;;;2.88;;
60478;SDS011;46321;48.398;11.754;2023-01-31T05:59:39;8.68;;;3.35;;
60478;SDS011;46321;48.398;11.754;2023-01-31T06:02:05;8.35;;;3.10;;
60478;SDS011;46321;48.398;11.754;2023-01-31T06:04:30;6.45;;;3.47;;
60478;SDS011;46321;48.398;11.754;2023-01-31T06:06:55;8.02;;;3.33;;
60478;SDS011;46321;48.398;11.754;2023-01-31T06:09:21;7.22;;;3.03;;
60478;SDS011;46321;48.398;11.754;2023-01-31T06:11:46;8.60;;;3.42;;
60478;SDS011;46321;48.398;11.754;2023-01-31T06:14:11;10.20;;;3.45;;
60478;SDS011;46321;48.398;11.754;2023-01-31T06:16:36;7.55;;;3.33;;
60478;SDS011;46321;48.398;11.754;2023-01-31T06:19:02;6.68;;;3.60;;
60478;SDS011;46321;48.398;11.754;2023-01-31T06:21:27;7.93;;;3.38;;
60478;SDS011;46321;48.398;11.754;2023-01-31T06:23:52;9.75;;;3.20;;
60478;SDS011;46321;48.398;11.754;2023-01-31T06:26:17;9.02;;;4.43;;
60478;SDS011;46321;48.398;11.754;2023-01-31T06:28:43;11.25;;;3.88;;
60478;SDS011;46321;48.398;11.754;2023-01-31T06:31:08;10.70;;;3.80;;
60478;SDS011;46321;48.398;11.754;2023-01-31T06:33:35;7.03;;;3.60;;
60478;SDS011;46321;48.398;11.754;2023-01-31T06:36:00;9.48;;;3.65;;
60478;SDS011;46321;48.398;11.754;2023-01-31T06:38:27;11.07;;;3.72;;
60478;SDS011;46321;48.398;11.754;2023-01-31T06:40:52;14.07;;;4.90;;
60478;SDS011;46321;48.398;11.754;2023-01-31T06:43:18;10.30;;;4.60;;
60478;SDS011;46321;48.398;11.754;2023-01-31T06:45:43;15.60;;;5.78;;
60478;SDS011;46321;48.398;11.754;2023-01-31T06:48:08;10.07;;;3.83;;
60478;SDS011;46321;48.398;11.754;2023-01-31T06:50:34;6.93;;;3.85;;
60478;SDS011;46321;48.398;11.754;2023-01-31T06:53:00;10.15;;;4.15;;
60478;SDS011;46321;48.398;11.754;2023-01-31T06:55:25;8.73;;;4.28;;
60478;SDS011;46321;48.398;11.754;2023-01-31T06:57:50;8.23;;;3.70;;
60478;SDS011;46321;48.398;11.754;2023-01-31T07:00:15;8.98;;;3.75;;
60478;SDS011;46321;48.398;11.754;2023-01-31T07:02:45;9.13;;;4.05;;
60478;SDS011;46321;48.398;11.754;2023-01-31T07:05:11;5.97;;;3.47;;
60478;SDS011;46321;48.398;11.754;2023-01-31T07:07:36;9.43;;;3.58;;
60478;SDS011;46321;48.398;11.754;2023-01-31T07:10:02;8.85;;;3.97;;
60478;SDS011;46321;48.398;11.754;2023-01-31T07:12:27;10.63;;;3.75;;
60478;SDS011;46321;48.398;11.754;2023-01-31T07:14:53;8.52;;;3.67;;
60478;SDS011;46321;48.398;11.754;2023-01-31T07:17:18;10.73;;;3.88;;
60478;SDS011;46321;48.398;11.754;2023-01-31T07:19:45;10.07;;;3.65;;
60478;SDS011;46321;48.398;11.754;2023-01-31T07:22:10;10.05;;;3.63;;
60478;SDS011;46321;48.398;11.754;2023-01-31T07:24:35;12.23;;;3.88;;
60478;SDS011;46321;48.398;11.754;2023-01-31T07:27:01;8.38;;;3.55;;
60478;SDS011;46321;48.398;11.754;2023-01-31T07:29:26;10.25;;;4.10;;
60478;SDS011;46321;48.398;11.754;2023-01-31T07:31:53;10.85;;;3.53;;
60478;SDS011;46321;48.398;11.754;2023-01-31T07:34:18;10.60;;;4.15;;
60478;SDS011;46321;48.398;11.754;2023-01-31T07:36:46;9.32;;;3.65;;
60478;SDS011;46321;48.398;11.754;2023-01-31T07:39:12;10.52;;;3.70;;
60478;SDS011;46321;48.398;11.754;2023-01-31T07:41:37;10.35;;;3.75;;
60478;SDS011;46321;48.398;11.754;2023-01-31T07:44:02;9.57;;;4.13;;
60478;SDS011;46321;48.398;11.754;2023-01-31T07:46:28;8.45;;;3.83;;
60478;SDS011;46321;48.398;11.754;2023-01-31T07:48:53;11.63;;;4.30;;
60478;SDS011;46321;48.398;11.754;2023-01-31T07:51:18;11.15;;;5.15;;
60478;SDS011;46321;48.398;11.754;2023-01-31T07:53:43;9.82;;;3.88;;
60478;SDS011;46321;48.398;11.754;2023-01-31T07:56:10;10.30;;;3.75;;
60478;SDS011;46321;48.398;11.754;2023-01-31T07:58:40;9.85;;;4.20;;
60478;SDS011;46321;48.398;11.754;2023-01-31T08:01:08;8.27;;;3.53;;
60478;SDS011;46321;48.398;11.754;2023-01-31T08:03:56;11.07;;;3.65;;
60478;SDS011;46321;48.398;11.754;2023-01-31T08:06:22;11.07;;;3.72;;
60478;SDS011;46321;48.398;11.754;2023-01-31T08:08:47;21.98;;;4.03;;
60478;SDS011;46321;48.398;11.754;2023-01-31T08:11:12;8.05;;;3.40;;
60478;SDS011;46321;48.398;11.754;2023-01-31T08:13:37;10.60;;;3.90;;
60478;SDS011;46321;48.398;11.754;2023-01-31T08:16:04;6.35;;;3.40;;
60478;SDS011;46321;48.398;11.754;2023-01-31T08:18:30;6.30;;;2.95;;
60478;SDS011;46321;48.398;11.754;2023-01-31T08:20:56;7.40;;;3.38;;
60478;SDS011;46321;48.398;11.754;2023-01-31T08:23:22;8.27;;;3.40;;
60478;SDS011;46321;48.398;11.754;2023-01-31T08:25:47;10.50;;;3.47;;
60478;SDS011;46321;48.398;11.754;2023-01-31T08:28:12;9.65;;;3.78;;
60478;SDS011;46321;48.398;11.754;2023-01-31T08:30:41;7.05;;;3.40;;
60478;SDS011;46321;48.398;11.754;2023-01-31T08:33:07;10.02;;;3.80;;
60478;SDS011;46321;48.398;11.754;2023-01-31T08:35:34;7.07;;;3.25;;
60478;SDS011;46321;48.398;11.754;2023-01-31T08:38:00;10.48;;;3.33;;
60478;SDS011;46321;48.398;11.754;2023-01-31T08:40:25;8.60;;;3.67;;
60478;SDS011;46321;48.398;11.754;2023-01-31T08:42:57;7.18;;;3.25;;
60478;SDS011;46321;48.398;11.754;2023-01-31T08:45:24;10.13;;;3.45;;
60478;SDS011;46321;48.398;11.754;2023-01-31T08:47:53;10.45;;;3.78;;
60478;SDS011;46321;48.398;11.754;2023-01-31T08:50:20;17.98;;;7.40;;
60478;SDS011;46321;48.398;11.754;2023-01-31T08:52:45;12.48;;;5.22;;
60478;SDS011;46321;48.398;11.754;2023-01-31T08:55:11;9.98;;;3.80;;
60478;SDS011;46321;48.398;11.754;2023-01-31T08:57:38;10.23;;;3.70;;
60478;SDS011;46321;48.398;11.754;2023-01-31T09:00:05;14.43;;;4.45;;
60478;SDS011;46321;48.398;11.754;2023-01-31T09:02:31;9.68;;;3.78;;
60478;SDS011;46321;48.398;11.754;2023-01-31T09:04:57;12.40;;;3.92;;
60478;SDS011;46321;48.398;11.754;2023-01-31T09:07:22;8.13;;;3.45;;
60478;SDS011;46321;48.398;11.754;2023-01-31T09:09:47;8.43;;;3.85;;
60478;SDS011;46321;48.398;11.754;2023-01-31T09:12:13;9.70;;;3.47;;
60478;SDS011;46321;48.398;11.754;2023-01-31T09:14:38;8.10;;;3.47;;
60478;SDS011;46321;48.398;11.754;2023-01-31T09:17:04;12.70;;;3.63;;
60478;SDS011;46321;48.398;11.754;2023-01-31T09:19:31;10.00;;;3.97;;
60478;SDS011;46321;48.398;11.754;2023-01-31T09:21:57;7.60;;;3.20;;
60478;SDS011;46321;48.398;11.754;2023-01-31T09:24:22;10.18;;;3.47;;
60478;SDS011;46321;48.398;11.754;2023-01-31T09:26:47;7.50;;;3.72;;
60478;SDS011;46321;48.398;11.754;2023-01-31T09:29:13;8.65;;;3.88;;
60478;SDS011;46321;48.398;11.754;2023-01-31T09:31:38;8.77;;;3.38;;
60478;SDS011;46321;48.398;11.754;2023-01-31T09:34:03;9.98;;;5.07;;
60478;SDS011;46321;48.398;11.754;2023-01-31T09:36:28;14.05;;;5.28;;
60478;SDS011;46321;48.398;11.754;2023-01-31T09:38:54;8.75;;;3.50;;
60478;SDS011;46321;48.398;11.754;2023-01-31T09:43:50;10.65;;;3.60;;
60478;SDS011;46321;48.398;11.754;2023-01-31T09:46:20;8.25;;;3.70;;
60478;SDS011;46321;48.398;11.754;2023-01-31T09:48:50;7.38;;;3.00;;
60478;SDS011;46321;48.398;11.754;2023-01-31T09:51:19;8.15;;;3.20;;
60478;SDS011;46321;48.398;11.754;2023-01-31T09:53:44;8.68;;;3.03;;
60478;SDS011;46321;48.398;11.754;2023-01-31T09:56:14;6.05;;;2.42;;
60478;SDS011;46321;48.398;11.754;2023-01-31T09:59:01;7.85;;;2.30;;
60478;SDS011;46321;48.398;11.754;2023-01-31T10:04:29;4.22;;;1.70;;
60478;SDS011;46321;48.398;11.754;2023-01-31T10:07:23;3.70;;;1.55;;
60478;SDS011;46321;48.398;11.754;2023-01-31T10:10:02;8.23;;;1.90;;
60478;SDS011;46321;48.398;11.754;2023-01-31T10:12:56;5.10;;;2.72;;
60478;SDS011;46321;48.398;11.754;2023-01-31T10:17:58;6.15;;;2.03;;
60478;SDS011;46321;48.398;11.754;2023-01-31T10:20:33;3.88;;;2.05;;
60478;SDS011;46321;48.398;11.754;2023-01-31T10:23:14;6.25;;;2.08;;
60478;SDS011;46321;48.398;11.754;2023-01-31T10:25:49;4.57;;;2.45;;
60478;SDS011;46321;48.398;11.754;2023-01-31T10:36:17;4.60;;;2.47;;
60478;SDS011;46321;48.398;11.754;2023-01-31T10:44:48;7.97;;;3.08;;
60478;SDS011;46321;48.398;11.754;2023-01-31T10:47:21;5.45;;;2.50;;
60478;SDS011;46321;48.398;11.754;2023-01-31T10:49:53;9.80;;;3.80;;
60478;SDS011;46321;48.398;11.754;2023-01-31T10:52:26;6.35;;;2.65;;
60478;SDS011;46321;48.398;11.754;2023-01-31T11:00:19;7.45;;;2.63;;
60478;SDS011;46321;48.398;11.754;2023-01-31T11:02:47;12.50;;;5.70;;
60478;SDS011;46321;48.398;11.754;2023-01-31T11:05:17;10.48;;;3.28;;
60478;SDS011;46321;48.398;11.754;2023-01-31T11:10:26;8.60;;;2.60;;
60478;SDS011;46321;48.398;11.754;2023-01-31T11:12:59;5.50;;;2.65;;
60478;SDS011;46321;48.398;11.754;2023-01-31T11:15:27;7.15;;;3.03;;
60478;SDS011;46321;48.398;11.754;2023-01-31T11:17:58;7.30;;;2.63;;
60478;SDS011;46321;48.398;11.754;2023-01-31T11:20:29;6.57;;;2.45;;
60478;SDS011;46321;48.398;11.754;2023-01-31T11:22:57;10.45;;;2.58;;
60478;SDS011;46321;48.398;11.754;2023-01-31T11:25:25;3.58;;;2.10;;
60478;SDS011;46321;48.398;11.754;2023-01-31T11:27:53;8.43;;;2.10;;
60478;SDS011;46321;48.398;11.754;2023-01-31T11:30:24;4.25;;;1.98;;
60478;SDS011;46321;48.398;11.754;2023-01-31T11:32:53;6.38;;;2.17;;
60478;SDS011;46321;48.398;11.754;2023-01-31T11:37:50;5.00;;;2.15;;
60478;SDS011;46321;48.398;11.754;2023-01-31T11:40:19;5.75;;;2.25;;
60478;SDS011;46321;48.398;11.754;2023-01-31T11:42:52;6.53;;;3.03;;
60478;SDS011;46321;48.398;11.754;2023-01-31T11:45:23;6.13;;;2.20;;
60478;SDS011;46321;48.398;11.754;2023-01-31T11:47:58;3.67;;;2.20;;
60478;SDS011;46321;48.398;11.754;2023-01-31T11:53:25;8.98;;;2.20;;
60478;SDS011;46321;48.398;11.754;2023-01-31T11:55:58;5.80;;;2.13;;
60478;SDS011;46321;48.398;11.754;2023-01-31T11:58:37;7.60;;;2.90;;
60478;SDS011;46321;48.398;11.754;2023-01-31T12:01:06;4.38;;;1.98;;
60478;SDS011;46321;48.398;11.754;2023-01-31T12:03:38;5.80;;;2.50;;
60478;SDS011;46321;48.398;11.754;2023-01-31T12:06:09;4.32;;;2.20;;
60478;SDS011;46321;48.398;11.754;2023-01-31T12:08:55;7.47;;;2.45;;
60478;SDS011;46321;48.398;11.754;2023-01-31T12:11:25;9.13;;;2.65;;
60478;SDS011;46321;48.398;11.754;2023-01-31T12:14:14;6.28;;;1.95;;
60478;SDS011;46321;48.398;11.754;2023-01-31T12:16:41;6.57;;;2.05;;
60478;SDS011;46321;48.398;11.754;2023-01-31T12:24:17;6.93;;;2.03;;
60478;SDS011;46321;48.398;11.754;2023-01-31T12:27:02;7.90;;;3.10;;
60478;SDS011;46321;48.398;11.754;2023-01-31T12:29:57;4.20;;;2.33;;
60478;SDS011;46321;48.398;11.754;2023-01-31T12:32:50;7.32;;;2.40;;
60478;SDS011;46321;48.398;11.754;2023-01-31T12:35:47;8.00;;;2.30;;
60478;SDS011;46321;48.398;11.754;2023-01-31T12:41:22;2.92;;;1.80;;
60478;SDS011;46321;48.398;11.754;2023-01-31T12:46:50;5.50;;;2.30;;
60478;SDS011;46321;48.398;11.754;2023-01-31T12:49:45;8.75;;;2.25;;
60478;SDS011;46321;48.398;11.754;2023-01-31T12:55:19;6.43;;;2.40;;
60478;SDS011;46321;48.398;11.754;2023-01-31T12:57:56;7.43;;;2.40;;
60478;SDS011;46321;48.398;11.754;2023-01-31T13:00:41;5.13;;;2.15;;
60478;SDS011;46321;48.398;11.754;2023-01-31T13:06:05;7.28;;;2.58;;
60478;SDS011;46321;48.398;11.754;2023-01-31T13:09:02;3.53;;;2.13;;
60478;SDS011;46321;48.398;11.754;2023-01-31T13:14:21;8.40;;;2.60;;
60478;SDS011;46321;48.398;11.754;2023-01-31T13:16:51;7.65;;;2.22;;
60478;SDS011;46321;48.398;11.754;2023-01-31T13:19:22;6.90;;;2.30;;
60478;SDS011;46321;48.398;11.754;2023-01-31T13:21:53;6.03;;;2.17;;
60478;SDS011;46321;48.398;11.754;2023-01-31T13:24:30;3.72;;;1.88;;
60478;SDS011;46321;48.398;11.754;2023-01-31T13:27:05;3.47;;;2.08;;
60478;SDS011;46321;48.398;11.754;2023-01-31T13:29:43;5.50;;;2.40;;
60478;SDS011;46321;48.398;11.754;2023-01-31T13:32:27;6.43;;;2.88;;
60478;SDS011;46321;48.398;11.754;2023-01-31T13:35:02;4.13;;;2.30;;
60478;SDS011;46321;48.398;11.754;2023-01-31T13:40:03;10.77;;;2.70;;
60478;SDS011;46321;48.398;11.754;2023-01-31T13:42:40;7.07;;;2.35;;
60478;SDS011;46321;48.398;11.754;2023-01-31T13:45:05;9.75;;;2.78;;
60478;SDS011;46321;48.398;11.754;2023-01-31T13:47:39;4.60;;;2.22;;
60478;SDS011;46321;48.398;11.754;2023-01-31T13:52:46;5.45;;;2.60;;
60478;SDS011;46321;48.398;11.754;2023-01-31T13:55:27;7.97;;;2.90;;
60478;SDS011;46321;48.398;11.754;2023-01-31T13:58:05;8.77;;;2.83;;
60478;SDS011;46321;48.398;11.754;2023-01-31T14:00:43;6.03;;;3.13;;
60478;SDS011;46321;48.398;11.754;2023-01-31T14:03:15;10.57;;;4.53;;
60478;SDS011;46321;48.398;11.754;2023-01-31T14:13:43;4.88;;;2.78;;
60478;SDS011;46321;48.398;11.754;2023-01-31T14:21:52;5.18;;;2.75;;
60478;SDS011;46321;48.398;11.754;2023-01-31T14:27:21;5.07;;;2.70;;
60478;SDS011;46321;48.398;11.754;2023-01-31T14:29:50;5.50;;;3.00;;
60478;SDS011;46321;48.398;11.754;2023-01-31T14:37:43;4.70;;;2.78;;
60478;SDS011;46321;48.398;11.754;2023-01-31T15:05:08;7.28;;;3.08;;
60478;SDS011;46321;48.398;11.754;2023-01-31T15:07:55;6.07;;;2.78;;
60478;SDS011;46321;48.398;11.754;2023-01-31T15:13:42;6.07;;;2.85;;
60478;SDS011;46321;48.398;11.754;2023-01-31T15:16:21;5.18;;;2.55;;
60478;SDS011;46321;48.398;11.754;2023-01-31T15:19:00;8.15;;;3.50;;
60478;SDS011;46321;48.398;11.754;2023-01-31T15:21:33;7.45;;;3.70;;
60478;SDS011;46321;48.398;11.754;2023-01-31T15:24:04;9.52;;;3.67;;
60478;SDS011;46321;48.398;11.754;2023-01-31T15:26:30;8.68;;;3.45;;
60478;SDS011;46321;48.398;11.754;2023-01-31T15:28:59;6.82;;;3.85;;
60478;SDS011;46321;48.398;11.754;2023-01-31T15:31:28;6.68;;;3.45;;
60478;SDS011;46321;48.398;11.754;2023-01-31T15:33:58;7.35;;;3.55;;
60478;SDS011;46321;48.398;11.754;2023-01-31T15:36:31;6.05;;;3.58;;
60478;SDS011;46321;48.398;11.754;2023-01-31T15:38:59;6.82;;;3.72;;
60478;SDS011;46321;48.398;11.754;2023-01-31T15:41:37;8.40;;;3.75;;
60478;SDS011;46321;48.398;11.754;2023-01-31T15:44:17;7.57;;;3.05;;
60478;SDS011;46321;48.398;11.754;2023-01-31T15:46:51;8.07;;;4.30;;
60478;SDS011;46321;48.398;11.754;2023-01-31T15:54:32;6.82;;;3.63;;
60478;SDS011;46321;48.398;11.754;2023-01-31T15:56:58;4.82;;;3.35;;
60478;SDS011;46321;48.398;11.754;2023-01-31T15:59:25;7.15;;;3.63;;
60478;SDS011;46321;48.398;11.754;2023-01-31T16:01:52;7.40;;;3.83;;
60478;SDS011;46321;48.398;11.754;2023-01-31T16:04:22;6.85;;;3.80;;
60478;SDS011;46321;48.398;11.754;2023-01-31T16:06:47;8.10;;;3.95;;
60478;SDS011;46321;48.398;11.754;2023-01-31T16:09:29;7.13;;;3.65;;
60478;SDS011;46321;48.398;11.754;2023-01-31T16:11:56;6.38;;;3.13;;
60478;SDS011;46321;48.398;11.754;2023-01-31T16:14:22;8.00;;;3.40;;
60478;SDS011;46321;48.398;11.754;2023-01-31T16:16:50;7.40;;;3.72;;
60478;SDS011;46321;48.398;11.754;2023-01-31T16:19:20;8.15;;;3.13;;
60478;SDS011;46321;48.398;11.754;2023-01-31T16:21:49;6.97;;;3.58;;
60478;SDS011;46321;48.398;11.754;2023-01-31T16:24:16;7.53;;;3.65;;
60478;SDS011;46321;48.398;11.754;2023-01-31T16:26:53;6.70;;;3.47;;
60478;SDS011;46321;48.398;11.754;2023-01-31T16:29:19;7.03;;;3.28;;
60478;SDS011;46321;48.398;11.754;2023-01-31T16:31:51;9.27;;;3.75;;
60478;SDS011;46321;48.398;11.754;2023-01-31T16:34:23;8.90;;;3.85;;
60478;SDS011;46321;48.398;11.754;2023-01-31T16:37:01;6.25;;;3.38;;
60478;SDS011;46321;48.398;11.754;2023-01-31T16:39:44;7.32;;;3.13;;
60478;SDS011;46321;48.398;11.754;2023-01-31T16:44:41;6.75;;;3.45;;
60478;SDS011;46321;48.398;11.754;2023-01-31T16:47:27;9.43;;;3.80;;
60478;SDS011;46321;48.398;11.754;2023-01-31T16:52:44;6.78;;;3.72;;
60478;SDS011;46321;48.398;11.754;2023-01-31T16:55:12;9.15;;;3.70;;
60478;SDS011;46321;48.398;11.754;2023-01-31T16:57:39;10.70;;;4.13;;
60478;SDS011;46321;48.398;11.754;2023-01-31T17:00:06;8.95;;;3.97;;
60478;SDS011;46321;48.398;11.754;2023-01-31T17:02:58;7.35;;;3.83;;
60478;SDS011;46321;48.398;11.754;2023-01-31T17:05:25;6.88;;;3.28;;
60478;SDS011;46321;48.398;11.754;2023-01-31T17:08:00;6.95;;;3.72;;
60478;SDS011;46321;48.398;11.754;2023-01-31T17:10:27;6.57;;;3.65;;
60478;SDS011;46321;48.398;11.754;2023-01-31T17:15:27;5.82;;;3.63;;
60478;SDS011;46321;48.398;11.754;2023-01-31T17:17:52;6.95;;;3.78;;
60478;SDS011;46321;48.398;11.754;2023-01-31T17:20:19;10.25;;;3.67;;
60478;SDS011;46321;48.398;11.754;2023-01-31T17:22:45;7.97;;;3.83;;
60478;SDS011;46321;48.398;11.754;2023-01-31T17:27:48;8.93;;;4.18;;